createdAt,value
2017-04-09T00:00:51.003Z,70.72
2017-04-09T00:02:00.604Z,70.82
2017-04-09T00:03:10.931Z,71.2
2017-04-09T00:04:20.219Z,70.82
2017-04-09T00:05:30.227Z,70.82
2017-04-09T00:06:40.164Z,71.01
2017-04-09T00:07:50.092Z,70.92
2017-04-09T00:09:00.444Z,70.92
2017-04-09T00:10:10.487Z,71.01
2017-04-09T00:11:20.452Z,71.01
2017-04-09T00:12:30.445Z,70.92
2017-04-09T00:13:40.236Z,70.92
2017-04-09T00:14:49.801Z,70.92
2017-04-09T00:15:59.811Z,70.92
2017-04-09T00:17:09.454Z,70.82
2017-04-09T00:18:19.407Z,71.01
2017-04-09T00:19:29.069Z,71.01
2017-04-09T00:20:39.369Z,70.92
2017-04-09T00:21:49.101Z,70.92
2017-04-09T00:22:58.689Z,70.82
2017-04-09T00:24:08.649Z,70.82
2017-04-09T00:25:17.970Z,70.82
2017-04-09T00:26:28.265Z,70.92
2017-04-09T00:27:38.202Z,70.82
2017-04-09T00:28:48.156Z,71.01
2017-04-09T00:29:58.117Z,70.72
2017-04-09T00:31:08.116Z,71.01
2017-04-09T00:32:18.363Z,70.82
2017-04-09T00:33:28.298Z,71.01
2017-04-09T00:34:38.215Z,71.11
2017-04-09T00:35:48.186Z,71.3
2017-04-09T00:36:57.833Z,71.58
2017-04-09T00:38:08.028Z,71.39
2017-04-09T00:39:17.943Z,71.48
2017-04-09T00:40:27.837Z,71.2
2017-04-09T00:41:37.547Z,71.11
2017-04-09T00:42:47.442Z,71.45
2017-04-09T00:43:56.985Z,71.73
2017-04-09T00:45:06.576Z,71.55
2017-04-09T00:46:15.521Z,71.17
2017-04-09T00:47:25.103Z,71.73
2017-04-09T00:48:35.040Z,71.93
2017-04-09T00:49:45.239Z,71.83
2017-04-09T00:50:55.192Z,72.02
2017-04-09T00:52:05.098Z,71.73
2017-04-09T00:53:14.992Z,71.83
2017-04-09T00:54:23.948Z,71.83
2017-04-09T00:55:34.149Z,71.87
2017-04-09T00:56:44.050Z,71.77
2017-04-09T00:57:54.048Z,72.06
2017-04-09T00:59:03.989Z,71.73
2017-04-09T01:00:13.565Z,71.96
2017-04-09T01:01:23.807Z,72.06
2017-04-09T01:02:33.073Z,71.96
2017-04-09T01:03:42.994Z,71.77
2017-04-09T01:04:52.996Z,71.87
2017-04-09T01:06:02.913Z,71.96
2017-04-09T01:07:13.125Z,71.87
2017-04-09T01:08:22.753Z,71.77
2017-04-09T01:09:32.714Z,71.87
2017-04-09T01:10:42.622Z,71.87
2017-04-09T01:11:52.239Z,71.87
2017-04-09T01:13:02.461Z,71.87
2017-04-09T01:14:12.417Z,71.96
2017-04-09T01:15:22.406Z,72.06
2017-04-09T01:16:32.433Z,71.77
2017-04-09T01:17:42.055Z,71.87
2017-04-09T01:18:52.303Z,71.77
2017-04-09T01:20:02.237Z,71.77
2017-04-09T01:21:11.814Z,71.77
2017-04-09T01:22:21.863Z,71.77
2017-04-09T01:23:31.502Z,71.87
2017-04-09T01:24:41.477Z,71.77
2017-04-09T01:25:51.446Z,71.77
2017-04-09T01:27:01.026Z,71.77
2017-04-09T01:28:10.932Z,72.06
2017-04-09T01:29:20.826Z,71.96
2017-04-09T01:30:30.790Z,71.87
2017-04-09T01:31:40.870Z,71.87
2017-04-09T01:32:50.765Z,71.96
2017-04-09T01:34:00.703Z,71.87
2017-04-09T01:35:09.974Z,72.06
2017-04-09T01:36:19.877Z,71.77
2017-04-09T01:37:29.483Z,71.87
2017-04-09T01:38:39.446Z,71.96
2017-04-09T01:39:49.364Z,72.06
2017-04-09T01:40:58.634Z,71.87
2017-04-09T01:42:08.508Z,71.87
2017-04-09T01:43:18.094Z,71.77
2017-04-09T01:44:27.681Z,72.06
2017-04-09T01:45:37.583Z,71.87
2017-04-09T01:46:47.717Z,71.96
2017-04-09T01:47:57.936Z,72.06
2017-04-09T01:49:07.554Z,71.96
2017-04-09T01:50:17.463Z,72.06
2017-04-09T01:51:27.396Z,71.87
2017-04-09T01:52:37.288Z,71.96
2017-04-09T01:53:47.313Z,71.96
2017-04-09T01:54:56.577Z,71.77
2017-04-09T01:56:06.492Z,72.06
2017-04-09T01:57:15.761Z,71.48
2017-04-09T01:58:25.660Z,71.39
2017-04-09T01:59:36.151Z,71.68
2017-04-09T02:00:46.083Z,71.58
2017-04-09T02:01:55.657Z,71.87
2017-04-09T02:03:04.961Z,71.77
2017-04-09T02:04:14.895Z,71.77
2017-04-09T02:05:24.757Z,71.87
2017-04-09T02:06:34.677Z,71.87
2017-04-09T02:07:44.297Z,71.87
2017-04-09T02:08:53.568Z,71.77
2017-04-09T02:10:03.554Z,71.87
2017-04-09T02:11:13.941Z,71.87
2017-04-09T02:12:23.651Z,71.77
2017-04-09T02:13:33.599Z,71.77
2017-04-09T02:14:43.504Z,72.09
2017-04-09T02:15:53.477Z,71.72
2017-04-09T02:17:03.717Z,71.52
2017-04-09T02:18:13.875Z,71.48
2017-04-09T02:19:23.788Z,71.81
2017-04-09T02:20:33.408Z,71.96
2017-04-09T02:21:43.321Z,71.91
2017-04-09T02:22:53.196Z,71.72
2017-04-09T02:24:03.130Z,71.72
2017-04-09T02:25:13.032Z,71.72
2017-04-09T02:26:22.334Z,71.58
2017-04-09T02:27:32.391Z,72.16
2017-04-09T02:28:42.620Z,72.25
2017-04-09T02:29:52.202Z,72.06
2017-04-09T02:31:02.149Z,72.16
2017-04-09T02:32:11.453Z,72.06
2017-04-09T02:33:20.733Z,72.16
2017-04-09T02:34:30.263Z,72.44
2017-04-09T02:35:40.203Z,72.16
2017-04-09T02:36:50.138Z,72.53
2017-04-09T02:38:00.050Z,72.63
2017-04-09T02:39:09.947Z,72.44
2017-04-09T02:40:20.213Z,72.25
2017-04-09T02:41:30.180Z,72.16
2017-04-09T02:42:40.198Z,72.25
2017-04-09T02:43:50.010Z,72.82
2017-04-09T02:44:59.797Z,72.92
2017-04-09T02:46:09.369Z,72.82
2017-04-09T02:47:19.506Z,72.72
2017-04-09T02:48:29.446Z,73.01
2017-04-09T02:49:39.418Z,73.21
2017-04-09T02:50:49.005Z,73.01
2017-04-09T02:51:59.246Z,73.11
2017-04-09T02:53:09.219Z,72.82
2017-04-09T02:54:19.185Z,73.11
2017-04-09T02:55:29.201Z,73.11
2017-04-09T02:56:39.238Z,73.11
2017-04-09T02:57:49.124Z,73.3
2017-04-09T02:58:58.833Z,73.49
2017-04-09T03:00:08.857Z,73.39
2017-04-09T03:01:18.495Z,73.11
2017-04-09T03:02:28.084Z,73.11
2017-04-09T03:03:37.970Z,73.58
2017-04-09T03:04:47.554Z,73.58
2017-04-09T03:05:57.472Z,73.11
2017-04-09T03:07:07.425Z,73.39
2017-04-09T03:08:17.359Z,73.11
2017-04-09T03:09:27.707Z,73.21
2017-04-09T03:10:37.694Z,73.11
2017-04-09T03:11:47.655Z,73.39
2017-04-09T03:12:57.851Z,73.21
2017-04-09T03:14:07.446Z,73.3
2017-04-09T03:15:17.305Z,73.3
2017-04-09T03:16:27.208Z,73.21
2017-04-09T03:17:37.175Z,73.3
2017-04-09T03:18:46.573Z,73.58
2017-04-09T03:19:56.486Z,73.49
2017-04-09T03:21:06.697Z,73.39
2017-04-09T03:22:16.357Z,73.58
2017-04-09T03:23:25.958Z,73.58
2017-04-09T03:24:35.554Z,73.77
2017-04-09T03:25:44.864Z,73.77
2017-04-09T03:26:55.130Z,73.3
2017-04-09T03:28:04.759Z,73.58
2017-04-09T03:29:14.669Z,73.77
2017-04-09T03:30:24.619Z,73.68
2017-04-09T03:31:34.648Z,73.49
2017-04-09T03:32:44.539Z,73.68
2017-04-09T03:33:54.457Z,73.49
2017-04-09T03:35:04.505Z,73.49
2017-04-09T03:36:14.077Z,73.58
2017-04-09T03:37:23.705Z,73.77
2017-04-09T03:38:33.299Z,73.58
2017-04-09T03:39:43.207Z,73.87
2017-04-09T03:40:53.097Z,73.58
2017-04-09T03:42:03.009Z,74.06
2017-04-09T03:43:12.629Z,73.77
2017-04-09T03:44:22.720Z,73.77
2017-04-09T03:45:32.305Z,73.96
2017-04-09T03:46:42.269Z,73.87
2017-04-09T03:47:51.854Z,73.77
2017-04-09T03:49:01.124Z,74.16
2017-04-09T03:50:11.352Z,74.25
2017-04-09T03:51:21.324Z,74.25
2017-04-09T03:52:30.967Z,74.35
2017-04-09T03:53:40.913Z,74.54
2017-04-09T03:54:50.872Z,74.35
2017-04-09T03:56:01.153Z,74.16
2017-04-09T03:57:11.061Z,74.06
2017-04-09T03:58:21.008Z,74.63
2017-04-09T03:59:30.589Z,74.54
2017-04-09T04:00:40.196Z,74.25
2017-04-09T04:01:50.345Z,74.44
2017-04-09T04:03:00.276Z,74.35
2017-04-09T04:04:10.179Z,74.44
2017-04-09T04:05:20.134Z,74.35
2017-04-09T04:06:29.738Z,74.54
2017-04-09T04:07:40.034Z,74.44
2017-04-09T04:08:49.999Z,74.25
2017-04-09T04:09:59.941Z,74.44
2017-04-09T04:11:09.593Z,74.63
2017-04-09T04:12:19.166Z,74.63
2017-04-09T04:13:29.036Z,74.73
2017-04-09T04:14:38.988Z,74.73
2017-04-09T04:15:48.667Z,74.63
2017-04-09T04:16:57.944Z,74.92
2017-04-09T04:18:07.532Z,74.63
2017-04-09T04:19:17.768Z,74.44
2017-04-09T04:20:27.701Z,74.73
2017-04-09T04:21:37.352Z,74.44
2017-04-09T04:22:47.363Z,74.44
2017-04-09T04:23:56.934Z,74.44
2017-04-09T04:25:06.766Z,74.44
2017-04-09T04:26:16.734Z,74.73
2017-04-09T04:27:26.763Z,74.82
2017-04-09T04:28:36.034Z,75.2
2017-04-09T04:29:45.981Z,75.2
2017-04-09T04:30:56.194Z,75.01
2017-04-09T04:32:05.795Z,75.11
2017-04-09T04:33:15.691Z,74.92
2017-04-09T04:34:25.656Z,74.82
2017-04-09T04:35:35.280Z,75.49
2017-04-09T04:36:45.561Z,75.2
2017-04-09T04:37:55.189Z,75.4
2017-04-09T04:39:05.137Z,75.11
2017-04-09T04:40:14.406Z,75.2
2017-04-09T04:41:24.457Z,75.01
2017-04-09T04:42:34.699Z,75.49
2017-04-09T04:43:44.598Z,75.3
2017-04-09T04:44:54.200Z,75.68
2017-04-09T04:46:04.117Z,75.4
2017-04-09T04:47:14.073Z,75.49
2017-04-09T04:48:24.315Z,75.3
2017-04-09T04:49:34.262Z,75.3
2017-04-09T04:50:44.219Z,75.68
2017-04-09T04:51:54.171Z,75.68
2017-04-09T04:53:03.751Z,76.06
2017-04-09T04:54:13.912Z,76.16
2017-04-09T04:55:23.823Z,75.96
2017-04-09T04:56:33.495Z,76.06
2017-04-09T04:57:43.400Z,75.96
2017-04-09T04:58:53.336Z,76.06
2017-04-09T05:00:03.570Z,76.16
2017-04-09T05:01:13.541Z,76.25
2017-04-09T05:02:23.493Z,75.68
2017-04-09T05:03:33.389Z,75.4
2017-04-09T05:04:43.314Z,75.78
2017-04-09T05:05:53.531Z,75.68
2017-04-09T05:07:03.496Z,75.68
2017-04-09T05:08:13.402Z,75.59
2017-04-09T05:09:23.307Z,75.3
2017-04-09T05:10:32.890Z,75.87
2017-04-09T05:11:43.119Z,75.68
2017-04-09T05:12:53.014Z,75.68
2017-04-09T05:14:02.326Z,75.49
2017-04-09T05:15:11.926Z,75.68
2017-04-09T05:16:21.506Z,76.25
2017-04-09T05:17:31.370Z,76.25
2017-04-09T05:18:40.985Z,75.68
2017-04-09T05:19:50.919Z,75.87
2017-04-09T05:21:00.890Z,75.87
2017-04-09T05:22:10.882Z,75.4
2017-04-09T05:23:20.748Z,75.78
2017-04-09T05:24:30.353Z,75.2
2017-04-09T05:25:39.965Z,75.53
2017-04-09T05:26:49.870Z,75.43
2017-04-09T05:27:59.203Z,75.01
2017-04-09T05:29:09.461Z,75.01
2017-04-09T05:30:19.084Z,75.24
2017-04-09T05:31:28.669Z,75.34
2017-04-09T05:32:37.990Z,75.49
2017-04-09T05:33:47.901Z,75.05
2017-04-09T05:34:58.053Z,74.96
2017-04-09T05:36:08.202Z,75.15
2017-04-09T05:37:17.808Z,75.24
2017-04-09T05:38:27.422Z,74.96
2017-04-09T05:39:37.009Z,75.05
2017-04-09T05:40:47.222Z,74.57
2017-04-09T05:41:57.125Z,74.48
2017-04-09T05:43:06.838Z,74.48
2017-04-09T05:44:16.787Z,74.48
2017-04-09T05:45:26.720Z,74.38
2017-04-09T05:46:36.659Z,74.77
2017-04-09T05:47:46.639Z,74.86
2017-04-09T05:48:56.271Z,75.05
2017-04-09T05:50:06.199Z,75.24
2017-04-09T05:51:16.105Z,75.15
2017-04-09T05:52:26.021Z,75.53
2017-04-09T05:53:35.916Z,75.43
2017-04-09T05:54:45.243Z,75.34
2017-04-09T05:55:55.197Z,74.86
2017-04-09T05:57:04.210Z,75.05
2017-04-09T05:58:14.160Z,75.24
2017-04-09T05:59:24.096Z,75.34
2017-04-09T06:00:33.686Z,75.43
2017-04-09T06:01:43.668Z,75.24
2017-04-09T06:02:53.599Z,74.9
2017-04-09T06:04:03.803Z,74.96
2017-04-09T06:05:13.116Z,75.34
2017-04-09T06:06:23.004Z,75.34
2017-04-09T06:07:32.999Z,75.05
2017-04-09T06:08:42.594Z,75.05
2017-04-09T06:09:52.607Z,74.77
2017-04-09T06:11:02.536Z,74.99
2017-04-09T06:12:12.472Z,74.8
2017-04-09T06:13:22.085Z,74.52
2017-04-09T06:14:32.017Z,74.61
2017-04-09T06:15:42.292Z,74.8
2017-04-09T06:16:51.595Z,74.99
2017-04-09T06:18:01.542Z,74.61
2017-04-09T06:19:11.473Z,74.61
2017-04-09T06:20:21.380Z,74.9
2017-04-09T06:21:31.623Z,74.61
2017-04-09T06:22:41.579Z,74.8
2017-04-09T06:23:51.242Z,74.52
2017-04-09T06:25:00.818Z,74.52
2017-04-09T06:26:10.784Z,74.32
2017-04-09T06:27:21.265Z,74.52
2017-04-09T06:28:30.866Z,74.42
2017-04-09T06:29:40.841Z,74.32
2017-04-09T06:30:50.806Z,74.52
2017-04-09T06:32:00.710Z,74.32
2017-04-09T06:33:10.973Z,74.42
2017-04-09T06:34:20.241Z,74.32
2017-04-09T06:35:29.858Z,74.52
2017-04-09T06:36:39.866Z,74.32
2017-04-09T06:37:49.803Z,74.13
2017-04-09T06:39:00.014Z,73.66
2017-04-09T06:40:09.638Z,73.75
2017-04-09T06:41:19.620Z,73.32
2017-04-09T06:42:29.574Z,73.22
2017-04-09T06:43:39.520Z,72.93
2017-04-09T06:44:49.439Z,73.03
2017-04-09T06:45:58.709Z,72.36
2017-04-09T06:47:08.456Z,72.26
2017-04-09T06:48:18.356Z,72.68
2017-04-09T06:49:28.261Z,72.01
2017-04-09T06:50:37.504Z,72.11
2017-04-09T06:51:47.084Z,71.53
2017-04-09T06:52:56.711Z,71.53
2017-04-09T06:54:06.292Z,71.53
2017-04-09T06:55:16.200Z,71.5
2017-04-09T06:56:26.503Z,71.59
2017-04-09T06:57:36.134Z,71.15
2017-04-09T06:58:46.034Z,70.96
2017-04-09T06:59:55.641Z,71.06
2017-04-09T07:01:05.618Z,71.15
2017-04-09T07:02:15.487Z,71.25
2017-04-09T07:03:25.127Z,70.29
2017-04-09T07:04:35.053Z,70.48
2017-04-09T07:05:44.674Z,70.01
2017-04-09T07:06:54.296Z,70.01
2017-04-09T07:08:04.140Z,69.82
2017-04-09T07:09:13.403Z,69.76
2017-04-09T07:10:23.312Z,69.76
2017-04-09T07:11:32.928Z,68.8
2017-04-09T07:12:42.525Z,68.61
2017-04-09T07:13:52.423Z,68.8
2017-04-09T07:15:02.339Z,68.32
2017-04-09T07:16:12.279Z,67.97
2017-04-09T07:17:21.878Z,67.78
2017-04-09T07:18:31.815Z,67.97
2017-04-09T07:19:42.058Z,68.07
2017-04-09T07:20:51.998Z,67.69
2017-04-09T07:22:01.648Z,66.92
2017-04-09T07:23:11.277Z,67.05
2017-04-09T07:24:20.885Z,66.86
2017-04-09T07:25:31.316Z,66.86
2017-04-09T07:26:41.875Z,66.47
2017-04-09T07:27:52.101Z,65.9
2017-04-09T07:29:02.635Z,66
2017-04-09T07:30:12.854Z,65.9
2017-04-09T07:31:23.322Z,66.09
2017-04-09T07:32:33.575Z,65.9
2017-04-09T07:33:44.159Z,65.84
2017-04-09T07:34:54.697Z,65.55
2017-04-09T07:36:05.213Z,65.42
2017-04-09T07:37:15.960Z,65.45
2017-04-09T07:38:26.793Z,65.45
2017-04-09T07:39:36.992Z,64.69
2017-04-09T07:40:48.275Z,64.4
2017-04-09T07:41:58.775Z,64.53
2017-04-09T07:43:09.672Z,64.63
2017-04-09T07:44:19.926Z,64.53
2017-04-09T07:45:30.458Z,64.25
2017-04-09T07:46:41.945Z,64.25
2017-04-09T07:47:51.796Z,64.09
2017-04-09T07:49:02.282Z,63.22
2017-04-09T07:50:13.469Z,63.03
2017-04-09T07:51:23.687Z,62.84
2017-04-09T07:52:33.918Z,62.84
2017-04-09T07:53:43.820Z,62.36
2017-04-09T07:54:54.649Z,62.55
2017-04-09T07:56:05.248Z,62.36
2017-04-09T07:57:15.785Z,61.98
2017-04-09T07:58:26.284Z,61.72
2017-04-09T07:59:36.536Z,61.05
2017-04-09T08:00:47.504Z,60.31
2017-04-09T08:01:57.415Z,59.03
2017-04-09T08:03:07.945Z,57.45
2017-04-09T08:04:18.183Z,55.94
2017-04-09T08:05:28.347Z,54.56
2017-04-09T08:06:39.238Z,53.17
2017-04-09T08:07:49.744Z,52.61
2017-04-09T08:09:00.277Z,50.23
2017-04-09T08:10:10.853Z,47.27
2017-04-09T08:11:21.380Z,47.29
2017-04-09T08:12:32.216Z,45.67
2017-04-09T08:13:43.724Z,45.31
2017-04-09T08:14:54.245Z,44.17
2017-04-09T08:16:04.796Z,42.83
2017-04-09T08:17:15.003Z,42.35
2017-04-09T08:18:25.853Z,41.6
2017-04-09T08:19:36.094Z,40.46
2017-04-09T08:20:46.650Z,39.51
2017-04-09T08:21:58.124Z,38.15
2017-04-09T08:23:08.670Z,38.45
2017-04-09T08:24:18.948Z,38.45
2017-04-09T08:25:29.596Z,36.72
2017-04-09T08:26:40.191Z,36.52
2017-04-09T08:27:51.338Z,36.44
2017-04-09T08:29:01.977Z,35.48
2017-04-09T08:30:12.499Z,35.28
2017-04-09T08:31:23.053Z,34.41
2017-04-09T08:32:33.250Z,34.43
2017-04-09T08:33:43.844Z,32.97
2017-04-09T08:34:54.986Z,33.36
2017-04-09T08:36:05.825Z,32.12
2017-04-09T08:37:16.339Z,32.41
2017-04-09T08:38:26.913Z,32.32
2017-04-09T08:39:38.423Z,31.84
2017-04-09T08:40:49.043Z,32.05
2017-04-09T08:41:59.535Z,30.9
2017-04-09T08:43:09.700Z,30.61
2017-04-09T08:44:20.225Z,28.96
2017-04-09T08:45:30.433Z,28.76
2017-04-09T08:46:41.592Z,29.44
2017-04-09T08:47:52.498Z,28.57
2017-04-09T08:49:03.989Z,28.76
2017-04-09T08:50:14.233Z,29.15
2017-04-09T08:51:24.423Z,28.38
2017-04-09T08:52:34.612Z,28.76
2017-04-09T08:53:45.382Z,28.29
2017-04-09T08:54:55.800Z,28.29
2017-04-09T08:56:06.055Z,27.51
2017-04-09T08:57:16.352Z,26.36
2017-04-09T08:58:26.539Z,27.04
2017-04-09T08:59:37.043Z,26.46
2017-04-09T09:00:47.249Z,26.95
2017-04-09T09:01:57.771Z,25.98
2017-04-09T09:03:07.968Z,24.83
2017-04-09T09:04:18.471Z,25.6
2017-04-09T09:05:28.972Z,25.51
2017-04-09T09:06:40.681Z,24.63
2017-04-09T09:07:50.916Z,24.05
2017-04-09T09:09:00.971Z,24.73
2017-04-09T09:10:10.817Z,24.44
2017-04-09T09:11:21.319Z,24.26
2017-04-09T09:12:31.857Z,24.27
2017-04-09T09:13:42.408Z,23.89
2017-04-09T09:14:52.968Z,23.79
2017-04-09T09:16:03.516Z,23.11
2017-04-09T09:17:14.098Z,22.9
2017-04-09T09:18:24.727Z,22.71
2017-04-09T09:19:35.267Z,22.6
2017-04-09T09:20:45.928Z,22.02
2017-04-09T09:21:56.622Z,23.38
2017-04-09T09:23:07.469Z,23.67
2017-04-09T09:24:16.948Z,23.67
2017-04-09T09:25:27.589Z,22.71
2017-04-09T09:26:38.249Z,23.58
2017-04-09T09:27:48.897Z,23.01
2017-04-09T09:28:59.727Z,22.72
2017-04-09T09:30:10.505Z,22.73
2017-04-09T09:31:22.001Z,21.28
2017-04-09T09:32:31.886Z,21.75
2017-04-09T09:33:42.431Z,21.85
2017-04-09T09:34:53.363Z,21.07
2017-04-09T09:36:03.931Z,21.36
2017-04-09T09:37:14.509Z,20.97
2017-04-09T09:38:25.031Z,21.28
2017-04-09T09:39:35.551Z,20.79
2017-04-09T09:40:46.385Z,21.29
2017-04-09T09:41:57.026Z,19.83
2017-04-09T09:43:07.570Z,19.92
2017-04-09T09:44:18.186Z,19.82
2017-04-09T09:45:28.738Z,20.21
2017-04-09T09:46:39.194Z,20.69
2017-04-09T09:47:49.767Z,19.31
2017-04-09T09:49:01.256Z,20.86
2017-04-09T09:50:11.874Z,20.09
2017-04-09T09:51:22.542Z,20.57
2017-04-09T09:52:33.353Z,20
2017-04-09T09:53:43.956Z,18.54
2017-04-09T09:54:54.491Z,19.8
2017-04-09T09:56:04.704Z,19.8
2017-04-09T09:57:14.898Z,19.41
2017-04-09T09:58:25.048Z,20.01
2017-04-09T09:59:36.646Z,18.64
2017-04-09T10:00:46.855Z,20.2
2017-04-09T10:01:57.462Z,19.99
2017-04-09T10:03:08.025Z,20.57
2017-04-09T10:04:19.866Z,21.06
2017-04-09T10:05:30.455Z,21.25
2017-04-09T10:06:40.990Z,20.95
2017-04-09T10:07:51.536Z,20.65
2017-04-09T10:09:02.074Z,20.55
2017-04-09T10:10:13.075Z,20.94
2017-04-09T10:11:23.641Z,21.33
2017-04-09T10:12:37.454Z,21.33
2017-04-09T10:13:47.694Z,21.43
2017-04-09T10:14:58.875Z,22
2017-04-09T10:16:09.954Z,21.5
2017-04-09T10:17:20.501Z,22.17
2017-04-09T10:18:31.767Z,21.58
2017-04-09T10:19:42.340Z,22.93
2017-04-09T10:20:52.858Z,22.93
2017-04-09T10:22:03.746Z,22.82
2017-04-09T10:23:14.028Z,22.44
2017-04-09T10:24:24.268Z,22.64
2017-04-09T10:25:34.504Z,22.44
2017-04-09T10:26:45.261Z,22.35
2017-04-09T10:27:57.035Z,22.16
2017-04-09T10:29:06.909Z,22.63
2017-04-09T10:30:16.791Z,22.53
2017-04-09T10:31:26.706Z,22.74
2017-04-09T10:32:36.928Z,23.13
2017-04-09T10:33:47.877Z,21.29
2017-04-09T10:34:57.838Z,21.68
2017-04-09T10:36:08.422Z,21.88
2017-04-09T10:37:18.981Z,21.5
2017-04-09T10:38:29.174Z,20.83
2017-04-09T10:39:40.644Z,21.02
2017-04-09T10:40:52.477Z,21.5
2017-04-09T10:42:02.725Z,22.37
2017-04-09T10:43:13.084Z,22.55
2017-04-09T10:44:23.613Z,22.93
2017-04-09T10:45:34.121Z,23.31
2017-04-09T10:46:44.650Z,24.16
2017-04-09T10:47:55.820Z,24.34
2017-04-09T10:49:06.392Z,24.34
2017-04-09T10:50:16.913Z,24.52
2017-04-09T10:51:27.378Z,24.54
2017-04-09T10:52:37.683Z,24.73
2017-04-09T10:53:47.924Z,24.24
2017-04-09T10:54:58.582Z,24.73
2017-04-09T10:56:09.131Z,24.23
2017-04-09T10:57:20.079Z,24.34
2017-04-09T10:58:30.324Z,24.54
2017-04-09T10:59:40.595Z,24.44
2017-04-09T11:00:50.497Z,24.62
2017-04-09T11:02:02.001Z,24.71
2017-04-09T11:03:12.506Z,25.09
2017-04-09T11:04:22.759Z,25.56
2017-04-09T11:05:32.999Z,25.76
2017-04-09T11:06:43.289Z,25.76
2017-04-09T11:07:53.508Z,25.76
2017-04-09T11:09:04.047Z,26.15
2017-04-09T11:10:14.257Z,26.23
2017-04-09T11:11:24.806Z,26.42
2017-04-09T11:12:35.396Z,26.52
2017-04-09T11:13:45.927Z,26.23
2017-04-09T11:14:56.421Z,26.89
2017-04-09T11:16:06.619Z,26.79
2017-04-09T11:17:17.135Z,26.89
2017-04-09T11:18:27.370Z,27.57
2017-04-09T11:19:37.615Z,27.57
2017-04-09T11:20:48.175Z,26.61
2017-04-09T11:21:58.478Z,26.14
2017-04-09T11:23:08.690Z,26.53
2017-04-09T11:24:19.303Z,26.16
2017-04-09T11:25:29.868Z,26.27
2017-04-09T11:26:40.006Z,25.3
2017-04-09T11:27:50.527Z,24.92
2017-04-09T11:29:00.835Z,24.92
2017-04-09T11:30:11.428Z,24.55
2017-04-09T11:31:21.984Z,24.65
2017-04-09T11:32:32.827Z,24.85
2017-04-09T11:33:43.359Z,23.59
2017-04-09T11:34:53.971Z,22.82
2017-04-09T11:36:04.175Z,22.44
2017-04-09T11:37:14.792Z,22.25
2017-04-09T11:38:25.632Z,22.16
2017-04-09T11:39:36.251Z,22.35
2017-04-09T11:40:46.488Z,21.97
2017-04-09T11:41:57.114Z,22.47
2017-04-09T11:43:07.428Z,22.47
2017-04-09T11:44:18.283Z,22.47
2017-04-09T11:45:28.528Z,21.78
2017-04-09T11:46:40.092Z,22.54
2017-04-09T11:47:51.605Z,23.31
2017-04-09T11:49:01.484Z,23.41
2017-04-09T11:50:12.168Z,23.79
2017-04-09T11:51:22.691Z,24.45
2017-04-09T11:52:33.003Z,24.45
2017-04-09T11:53:43.637Z,24.92
2017-04-09T11:54:54.237Z,24.63
2017-04-09T11:56:05.011Z,25.02
2017-04-09T11:57:15.598Z,24.93
2017-04-09T11:58:25.535Z,24.93
2017-04-09T11:59:35.730Z,24.92
2017-04-09T12:00:45.936Z,24.84
2017-04-09T12:01:56.831Z,24.35
2017-04-09T12:03:07.071Z,24.06
2017-04-09T12:04:18.272Z,23.87
2017-04-09T12:05:28.868Z,24.55
2017-04-09T12:06:39.119Z,24.55
2017-04-09T12:07:50.013Z,24.46
2017-04-09T12:09:00.014Z,24.76
2017-04-09T12:10:10.653Z,24.74
2017-04-09T12:11:21.203Z,24.46
2017-04-09T12:12:31.761Z,24.45
2017-04-09T12:13:42.617Z,24.74
2017-04-09T12:14:53.207Z,24.55
2017-04-09T12:16:03.954Z,24.56
2017-04-09T12:17:13.872Z,24.27
2017-04-09T12:18:24.393Z,24.17
2017-04-09T12:19:35.855Z,23.88
2017-04-09T12:20:46.378Z,23.59
2017-04-09T12:21:56.917Z,23.02
2017-04-09T12:23:06.921Z,23.11
2017-04-09T12:24:17.129Z,23.02
2017-04-09T12:25:28.115Z,22.81
2017-04-09T12:26:37.625Z,22.9
2017-04-09T12:27:48.298Z,23.77
2017-04-09T12:28:58.854Z,23.88
2017-04-09T12:30:09.393Z,23.59
2017-04-09T12:31:20.220Z,24.06
2017-04-09T12:32:31.716Z,24.45
2017-04-09T12:33:42.331Z,23.59
2017-04-09T12:34:52.927Z,23.97
2017-04-09T12:36:03.472Z,23.96
2017-04-09T12:37:14.234Z,23.58
2017-04-09T12:38:24.434Z,23.86
2017-04-09T12:39:34.727Z,24.24
2017-04-09T12:40:45.312Z,24.54
2017-04-09T12:41:55.874Z,24.73
2017-04-09T12:43:07.678Z,25.02
2017-04-09T12:44:18.016Z,24.91
2017-04-09T12:45:28.580Z,25.3
2017-04-09T12:46:39.094Z,25.4
2017-04-09T12:47:50.659Z,25.3
2017-04-09T12:49:01.249Z,25.21
2017-04-09T12:50:12.842Z,25.51
2017-04-09T12:51:23.418Z,25.31
2017-04-09T12:52:35.021Z,25.6
2017-04-09T12:53:45.307Z,25.6
2017-04-09T12:54:56.100Z,25.68
2017-04-09T12:56:06.258Z,25.78
2017-04-09T12:57:16.797Z,25.7
2017-04-09T12:58:27.998Z,25.7
2017-04-09T12:59:38.702Z,25.88
2017-04-09T13:00:49.588Z,25.88
2017-04-09T13:02:00.393Z,26.26
2017-04-09T13:03:10.937Z,26.16
2017-04-09T13:04:21.258Z,26.43
2017-04-09T13:05:31.819Z,26.63
2017-04-09T13:06:42.830Z,27.01
2017-04-09T13:07:53.436Z,27.11
2017-04-09T13:09:03.982Z,26.43
2017-04-09T13:10:13.965Z,26.82
2017-04-09T13:11:24.753Z,27
2017-04-09T13:12:35.376Z,27.29
2017-04-09T13:13:45.902Z,27.58
2017-04-09T13:14:57.401Z,27.39
2017-04-09T13:16:07.958Z,27.78
2017-04-09T13:17:18.245Z,27.87
2017-04-09T13:18:29.029Z,27.86
2017-04-09T13:19:38.509Z,27.86
2017-04-09T13:20:48.753Z,28.54
2017-04-09T13:21:59.315Z,28.05
2017-04-09T13:23:09.879Z,28.23
2017-04-09T13:24:20.734Z,28.33
2017-04-09T13:25:32.223Z,28.8
2017-04-09T13:26:42.790Z,28.61
2017-04-09T13:27:53.419Z,29.27
2017-04-09T13:29:03.987Z,29.17
2017-04-09T13:30:14.871Z,29.85
2017-04-09T13:31:25.433Z,29.75
2017-04-09T13:32:36.091Z,29.75
2017-04-09T13:33:46.337Z,29.85
2017-04-09T13:34:57.037Z,29.75
2017-04-09T13:36:07.896Z,29.94
2017-04-09T13:37:18.105Z,29.94
2017-04-09T13:38:28.310Z,29.75
2017-04-09T13:39:38.612Z,29.75
2017-04-09T13:40:49.144Z,30.14
2017-04-09T13:41:59.918Z,29.94
2017-04-09T13:43:10.112Z,29.85
2017-04-09T13:44:20.678Z,30.04
2017-04-09T13:45:31.336Z,30.14
2017-04-09T13:46:41.544Z,30.33
2017-04-09T13:47:52.067Z,30.62
2017-04-09T13:49:02.594Z,30.61
2017-04-09T13:50:12.496Z,31.18
2017-04-09T13:51:23.171Z,32.14
2017-04-09T13:52:33.436Z,32.04
2017-04-09T13:53:44.246Z,31.94
2017-04-09T13:54:54.861Z,32.04
2017-04-09T13:56:05.436Z,32.23
2017-04-09T13:57:16.081Z,32.33
2017-04-09T13:58:26.289Z,32.23
2017-04-09T13:59:36.756Z,32.04
2017-04-09T14:00:46.989Z,31.94
2017-04-09T14:01:58.523Z,32.62
2017-04-09T14:03:08.739Z,32.23
2017-04-09T14:04:20.057Z,32.23
2017-04-09T14:05:30.922Z,32.52
2017-04-09T14:06:41.453Z,32.91
2017-04-09T14:07:52.084Z,32.81
2017-04-09T14:09:02.654Z,32.81
2017-04-09T14:10:12.935Z,32.81
2017-04-09T14:11:23.896Z,32.89
2017-04-09T14:12:35.230Z,32.89
2017-04-09T14:13:45.810Z,33.18
2017-04-09T14:14:56.634Z,33.18
2017-04-09T14:16:06.933Z,33.09
2017-04-09T14:17:17.867Z,32.99
2017-04-09T14:18:28.086Z,33.09
2017-04-09T14:19:38.308Z,32.97
2017-04-09T14:20:48.516Z,33.36
2017-04-09T14:21:59.078Z,33.65
2017-04-09T14:23:09.943Z,33.74
2017-04-09T14:24:20.263Z,33.45
2017-04-09T14:25:30.569Z,33.36
2017-04-09T14:26:42.046Z,33.65
2017-04-09T14:27:52.668Z,33.45
2017-04-09T14:29:03.207Z,33.36
2017-04-09T14:30:13.796Z,33.45
2017-04-09T14:31:24.023Z,33.07
2017-04-09T14:32:33.912Z,32.78
2017-04-09T14:33:44.463Z,32.68
2017-04-09T14:34:55.359Z,32.97
2017-04-09T14:36:06.004Z,33.26
2017-04-09T14:37:16.654Z,33.45
2017-04-09T14:38:27.196Z,33.36
2017-04-09T14:39:37.769Z,33.37
2017-04-09T14:40:48.229Z,33.47
2017-04-09T14:41:58.450Z,33.55
2017-04-09T14:43:09.978Z,33.86
2017-04-09T14:44:20.543Z,33.86
2017-04-09T14:45:31.121Z,33.76
2017-04-09T14:46:41.891Z,33.86
2017-04-09T14:47:52.458Z,33.76
2017-04-09T14:49:03.010Z,33.66
2017-04-09T14:50:13.650Z,33.76
2017-04-09T14:51:23.909Z,33.57
2017-04-09T14:52:34.484Z,33.76
2017-04-09T14:53:45.020Z,33.76
2017-04-09T14:54:55.231Z,33.57
2017-04-09T14:56:05.769Z,33.66
2017-04-09T14:57:16.291Z,34.24
2017-04-09T14:58:27.096Z,34.44
2017-04-09T14:59:37.727Z,34.34
2017-04-09T15:00:48.984Z,34.42
2017-04-09T15:01:59.503Z,34.9
2017-04-09T15:03:09.724Z,34.9
2017-04-09T15:04:20.539Z,34.7
2017-04-09T15:05:31.121Z,34.8
2017-04-09T15:06:41.407Z,34.9